createdAt,value
2022-09-07T00:00:06.228Z,101400.09
2022-09-07T00:02:07.729Z,101399.16
2022-09-07T00:04:09.626Z,101392.03
2022-09-07T00:06:12.801Z,101392.88
2022-09-07T00:08:15.837Z,101396.50
2022-09-07T00:10:17.544Z,101395.69
2022-09-07T00:12:19.056Z,101397.50
2022-09-07T00:14:20.785Z,101397.50
2022-09-07T00:16:25.678Z,101400.19
2022-09-07T00:18:27.298Z,101408.25
2022-09-07T00:20:28.879Z,101402.84
2022-09-07T00:22:30.424Z,101408.19
2022-09-07T00:24:31.997Z,101393.91
2022-09-07T00:26:33.522Z,101388.56
2022-09-07T00:28:36.092Z,101380.56
2022-09-07T00:30:41.961Z,101386.84
2022-09-07T00:32:43.493Z,101383.28
2022-09-07T00:34:45.023Z,101379.75
2022-09-07T00:36:46.534Z,101378.91
2022-09-07T00:38:48.410Z,101374.56
2022-09-07T00:40:50.019Z,101372.78
2022-09-07T00:42:51.546Z,101371.03
2022-09-07T00:45:16.027Z,101367.56
2022-09-07T00:47:46.203Z,101372.91
2022-09-07T00:49:53.889Z,101367.56
2022-09-07T00:52:02.241Z,101375.59
2022-09-07T00:54:10.569Z,101370.19
2022-09-07T00:56:13.111Z,101374.66
2022-09-07T00:58:15.891Z,101363.09
2022-09-07T01:00:17.656Z,101371.13
2022-09-07T01:02:20.927Z,101366.63
2022-09-07T01:04:23.595Z,101364.84
2022-09-07T01:06:29.621Z,101369.25
2022-09-07T01:08:31.780Z,101361.22
2022-09-07T01:10:34.585Z,101363.03
2022-09-07T01:12:36.095Z,101363.03
2022-09-07T01:14:43.027Z,101369.25
2022-09-07T01:17:04.673Z,101369.31
2022-09-07T01:19:45.693Z,101362.25
2022-09-07T01:21:53.104Z,101365.78
2022-09-07T01:24:20.998Z,101368.44
2022-09-07T01:26:37.661Z,101361.38
2022-09-07T01:28:39.744Z,101364.13
2022-09-07T01:30:51.638Z,101363.19
2022-09-07T01:33:02.310Z,101358.78
2022-09-07T01:35:12.232Z,101351.66
2022-09-07T01:37:32.159Z,101355.31
2022-09-07T01:39:56.665Z,101345.66
2022-09-07T01:42:03.640Z,101349.97
2022-09-07T01:44:18.220Z,101352.81
2022-09-07T01:46:31.818Z,101354.69
2022-09-07T01:48:36.346Z,101352.00
2022-09-07T01:50:45.608Z,101352.88
2022-09-07T01:52:59.146Z,101351.22
2022-09-07T01:55:13.800Z,101351.38
2022-09-07T01:57:27.111Z,101352.31
2022-09-07T01:59:40.471Z,101349.69
2022-09-07T02:01:49.764Z,101347.03
2022-09-07T02:04:00.437Z,101343.44
2022-09-07T02:06:11.042Z,101339.91
2022-09-07T02:08:25.431Z,101331.91
2022-09-07T02:10:36.998Z,101328.38
2022-09-07T02:12:49.923Z,101327.56
2022-09-07T02:14:57.247Z,101326.63
2022-09-07T02:17:04.830Z,101320.34
2022-09-07T02:19:12.805Z,101323.09
2022-09-07T02:21:19.523Z,101323.09
2022-09-07T02:23:26.014Z,101323.09
2022-09-07T02:25:32.980Z,101317.75
2022-09-07T02:27:43.856Z,101311.56
2022-09-07T02:29:45.458Z,101307.09
2022-09-07T02:31:47.465Z,101308.91
2022-09-07T02:33:49.696Z,101308.91
2022-09-07T02:35:52.056Z,101311.41
2022-09-07T02:37:53.672Z,101307.03
2022-09-07T02:39:55.393Z,101307.88
2022-09-07T02:41:57.000Z,101299.88
2022-09-07T02:43:59.149Z,101292.81
2022-09-07T02:46:31.099Z,101299.88
2022-09-07T02:48:38.803Z,101303.34
2022-09-07T02:51:07.815Z,101322.00
2022-09-07T02:53:47.574Z,101365.63
2022-09-07T02:56:08.015Z,101400.53
2022-09-07T02:58:31.729Z,101401.53
2022-09-07T03:00:45.022Z,101430.88
2022-09-07T03:03:04.826Z,101442.56
2022-09-07T03:05:33.517Z,101428.22
2022-09-07T03:07:45.280Z,101430.88
2022-09-07T03:09:49.535Z,101422.81
2022-09-07T03:11:51.840Z,101414.75
2022-09-07T03:13:53.365Z,101398.66
2022-09-07T03:15:56.353Z,101403.13
2022-09-07T03:17:58.103Z,101396.94
2022-09-07T03:20:00.187Z,101395.13
2022-09-07T03:22:02.160Z,101392.59
2022-09-07T03:24:03.929Z,101389.22
2022-09-07T03:26:05.695Z,101378.75
2022-09-07T03:28:07.522Z,101377.13
2022-09-07T03:30:10.846Z,101373.69
2022-09-07T03:32:12.399Z,101365.88
2022-09-07T03:34:14.650Z,101364.38
2022-09-07T03:36:16.249Z,101365.38
2022-09-07T03:38:17.764Z,101355.56
2022-09-07T03:40:19.418Z,101362.78
2022-09-07T03:42:21.730Z,101352.19
2022-09-07T03:44:23.302Z,101349.44
2022-09-07T03:46:24.863Z,101344.91
2022-09-07T03:48:28.177Z,101343.81
2022-09-07T03:50:29.694Z,101328.69
2022-09-07T03:52:31.362Z,101325.16
2022-09-07T03:54:36.663Z,101326.09
2022-09-07T03:56:40.523Z,101337.69
2022-09-07T03:58:42.356Z,101342.31
2022-09-07T04:00:43.888Z,101359.47
2022-09-07T04:02:45.437Z,101364.38
2022-09-07T04:04:47.239Z,101358.31
2022-09-07T04:06:48.847Z,101354.13
2022-09-07T04:08:50.515Z,101355.03
2022-09-07T04:10:52.369Z,101356.97
2022-09-07T04:12:53.863Z,101355.22
2022-09-07T04:14:55.738Z,101350.69
2022-09-07T04:16:57.465Z,101355.16
2022-09-07T04:18:59.350Z,101340.03
2022-09-07T04:21:00.940Z,101341.78
2022-09-07T04:23:02.468Z,101334.59
2022-09-07T04:25:04.191Z,101332.81
2022-09-07T04:27:05.764Z,101333.72
2022-09-07T04:29:08.674Z,101323.97
2022-09-07T04:31:10.495Z,101331.03
2022-09-07T04:33:13.299Z,101319.47
2022-09-07T04:35:15.137Z,101319.47
2022-09-07T04:37:16.731Z,101320.34
2022-09-07T04:39:18.342Z,101325.72
2022-09-07T04:41:19.981Z,101330.13
2022-09-07T04:43:21.477Z,101330.13
2022-09-07T04:45:22.970Z,101325.69
2022-09-07T04:47:25.205Z,101328.28
2022-09-07T04:49:26.707Z,101332.81
2022-09-07T04:51:30.748Z,101334.53
2022-09-07T04:53:33.469Z,101330.00
2022-09-07T04:55:34.973Z,101338.94
2022-09-07T04:57:36.579Z,101340.84
2022-09-07T04:59:38.118Z,101331.81
2022-09-07T05:01:40.019Z,101345.94
2022-09-07T05:03:41.599Z,101351.25
2022-09-07T05:05:43.110Z,101365.50
2022-09-07T05:07:44.765Z,101371.03
2022-09-07T05:09:47.196Z,101382.94
2022-09-07T05:11:48.948Z,101393.94
2022-09-07T05:13:51.006Z,101400.94
2022-09-07T05:15:52.529Z,101398.28
2022-09-07T05:17:54.076Z,101392.09
2022-09-07T05:19:55.579Z,101389.41
2022-09-07T05:21:57.787Z,101381.56
2022-09-07T05:24:00.577Z,101382.28
2022-09-07T05:26:02.093Z,101372.50
2022-09-07T05:28:04.172Z,101368.81
2022-09-07T05:30:06.585Z,101361.63
2022-09-07T05:32:09.237Z,101367.81
2022-09-07T05:36:33.361Z,101364.22
2022-09-07T05:38:36.835Z,101370.44
2022-09-07T05:40:40.724Z,101365.22
2022-09-07T05:42:42.504Z,101358.25
2022-09-07T05:44:45.181Z,101336.06
2022-09-07T05:46:47.139Z,101335.06
2022-09-07T05:48:48.675Z,101344.78
2022-09-07T05:50:52.107Z,101344.78
2022-09-07T05:52:53.829Z,101336.78
2022-09-07T05:55:07.406Z,101339.44
2022-09-07T05:57:16.843Z,101343.03
2022-09-07T05:59:18.333Z,101343.84
2022-09-07T06:01:19.854Z,101342.13
2022-09-07T06:03:21.429Z,101330.53
2022-09-07T06:05:23.049Z,101316.25
2022-09-07T06:07:24.552Z,101327.78
2022-09-07T06:09:30.244Z,101328.66
2022-09-07T06:11:32.120Z,101333.06
2022-09-07T06:13:34.214Z,101329.44
2022-09-07T06:15:35.737Z,101324.97
2022-09-07T06:17:37.277Z,101317.84
2022-09-07T06:19:38.793Z,101301.72
2022-09-07T06:21:40.389Z,101307.88
2022-09-07T06:23:43.506Z,101297.22
2022-09-07T06:25:49.781Z,101313.22
2022-09-07T06:27:51.984Z,101337.28
2022-09-07T06:29:53.483Z,101341.78
2022-09-07T06:34:16.594Z,101335.56
2022-09-07T06:36:20.570Z,101330.31
2022-09-07T06:38:22.095Z,101344.38
2022-09-07T06:40:23.590Z,101328.34
2022-09-07T06:42:25.122Z,101322.94
2022-09-07T06:44:26.622Z,101319.34
2022-09-07T06:48:56.138Z,101335.13
2022-09-07T06:51:00.034Z,101330.72
2022-09-07T06:55:23.030Z,101329.66
2022-09-07T06:57:24.606Z,101336.72
2022-09-07T06:59:26.131Z,101354.56
2022-09-07T07:01:29.145Z,101355.44
2022-09-07T07:03:30.813Z,101357.09
2022-09-07T07:05:32.411Z,101353.38
2022-09-07T07:07:34.437Z,101357.59
2022-09-07T07:09:35.950Z,101350.25
2022-09-07T07:11:37.615Z,101358.03
2022-09-07T07:13:40.574Z,101353.50
2022-09-07T07:15:42.342Z,101343.47
2022-09-07T07:17:43.887Z,101349.41
2022-09-07T07:19:45.394Z,101343.88
2022-09-07T07:22:10.714Z,101350.72
2022-09-07T07:24:08.516Z,101346.97
2022-09-07T07:26:19.315Z,101341.47
2022-09-07T07:30:47.248Z,101345.50
2022-09-07T07:32:48.754Z,101346.88
2022-09-07T07:34:50.226Z,101331.72
2022-09-07T07:36:51.693Z,101334.84
2022-09-07T07:43:21.386Z,101335.66
2022-09-07T07:47:49.461Z,101342.00
2022-09-07T07:50:30.492Z,101340.94
2022-09-07T07:54:37.289Z,101338.75
2022-09-07T07:56:38.754Z,101345.03
2022-09-07T07:58:43.641Z,101355.41
2022-09-07T08:01:00.703Z,101359.56
2022-09-07T08:03:02.402Z,101358.38
2022-09-07T08:05:04.038Z,101355.56
2022-09-07T08:07:10.238Z,101358.16
2022-09-07T08:09:12.599Z,101360.28
2022-09-07T08:11:19.684Z,101357.94
2022-09-07T08:13:21.540Z,101361.94
2022-09-07T08:15:23.314Z,101363.59
2022-09-07T08:17:24.788Z,101363.25
2022-09-07T08:19:26.204Z,101362.84
2022-09-07T08:21:27.743Z,101367.69
2022-09-07T08:23:31.603Z,101362.00
2022-09-07T08:25:34.109Z,101362.28
2022-09-07T08:27:36.089Z,101358.41
2022-09-07T08:29:37.501Z,101369.47
2022-09-07T08:31:38.979Z,101367.31
2022-09-07T08:33:41.361Z,101361.50
2022-09-07T08:35:43.099Z,101368.31
2022-09-07T08:37:44.561Z,101371.78
2022-09-07T08:39:46.096Z,101370.03
2022-09-07T08:42:15.996Z,101374.28
2022-09-07T08:44:42.875Z,101375.56
2022-09-07T08:47:07.480Z,101374.88
2022-09-07T08:49:21.681Z,101378.97
2022-09-07T08:51:36.194Z,101375.88
2022-09-07T08:53:45.261Z,101372.66
2022-09-07T08:55:55.681Z,101371.44
2022-09-07T08:58:04.814Z,101366.69
2022-09-07T09:00:11.713Z,101368.13
2022-09-07T09:02:35.148Z,101368.41
2022-09-07T09:05:16.297Z,101376.66
2022-09-07T09:07:29.207Z,101382.34
2022-09-07T09:09:36.684Z,101378.25
2022-09-07T09:11:48.084Z,101373.47
2022-09-07T09:14:06.341Z,101378.25
2022-09-07T09:16:34.046Z,101368.78
2022-09-07T09:19:00.450Z,101374.81
2022-09-07T09:21:02.529Z,101381.22
2022-09-07T09:23:13.075Z,101370.97
2022-09-07T09:25:22.923Z,101363.25
2022-09-07T09:27:24.398Z,101359.50
2022-09-07T09:29:25.868Z,101353.84
2022-09-07T09:31:35.135Z,101352.13
2022-09-07T09:33:36.669Z,101358.81
2022-09-07T09:35:39.418Z,101356.22
2022-09-07T09:37:42.396Z,101361.09
2022-09-07T09:39:44.439Z,101353.50
2022-09-07T09:41:46.279Z,101354.72
2022-09-07T09:43:55.863Z,101353.34
2022-09-07T09:46:13.673Z,101353.81
2022-09-07T09:48:35.048Z,101350.16
2022-09-07T09:53:02.661Z,101348.56
2022-09-07T09:59:04.885Z,101357.00
2022-09-07T10:00:23.656Z,101358.34
2022-09-07T10:04:55.412Z,101357.06
2022-09-07T10:07:09.694Z,101360.09
2022-09-07T10:09:18.098Z,101368.06
2022-09-07T10:13:59.935Z,101350.09
2022-09-07T10:16:05.159Z,101348.38
2022-09-07T10:18:09.568Z,101348.28
2022-09-07T10:20:17.002Z,101340.31
2022-09-07T10:22:37.506Z,101343.56
2022-09-07T10:24:39.988Z,101339.78
2022-09-07T10:26:44.394Z,101331.72
2022-09-07T10:31:24.933Z,101338.19
2022-09-07T10:34:25.659Z,101337.88
2022-09-07T10:36:24.941Z,101341.31
2022-09-07T10:38:30.023Z,101341.00
2022-09-07T10:40:35.975Z,101328.03
2022-09-07T10:43:20.741Z,101325.50
2022-09-07T10:45:27.648Z,101319.25
2022-09-07T10:47:55.128Z,101318.50
2022-09-07T10:50:22.563Z,101322.47
2022-09-07T10:52:42.784Z,101315.03
2022-09-07T10:54:44.150Z,101318.63
2022-09-07T10:57:07.634Z,101320.44
2022-09-07T11:02:18.227Z,101314.09
2022-09-07T11:04:55.092Z,101316.22
2022-09-07T11:07:24.737Z,101310.13
2022-09-07T11:09:48.132Z,101315.72
2022-09-07T11:12:05.396Z,101318.88
2022-09-07T11:14:16.082Z,101300.63
2022-09-07T11:18:51.180Z,101300.94
2022-09-07T11:20:56.577Z,101301.41
2022-09-07T11:23:10.869Z,101304.97
2022-09-07T11:25:29.654Z,101299.75
2022-09-07T11:27:38.367Z,101299.91
2022-09-07T11:29:48.818Z,101300.38
2022-09-07T11:32:07.583Z,101302.06
2022-09-07T11:34:29.209Z,101304.81
2022-09-07T11:36:44.125Z,101308.03
2022-09-07T11:39:19.650Z,101295.81
2022-09-07T11:41:24.994Z,101302.69
2022-09-07T11:43:41.281Z,101310.38
2022-09-07T11:45:51.157Z,101311.25
2022-09-07T11:47:59.276Z,101304.94
2022-09-07T11:50:00.852Z,101309.72
2022-09-07T11:52:11.157Z,101299.16
2022-09-07T11:54:18.347Z,101297.97
2022-09-07T11:56:45.820Z,101301.13
2022-09-07T11:59:02.588Z,101299.66
2022-09-07T12:01:25.197Z,101300.91
2022-09-07T12:03:32.736Z,101299.44
2022-09-07T12:05:52.328Z,101296.84
2022-09-07T12:08:02.935Z,101293.91
2022-09-07T12:10:16.954Z,101293.41
2022-09-07T12:12:21.417Z,101292.69
2022-09-07T12:14:59.898Z,101289.25
2022-09-07T12:17:16.496Z,101285.56
2022-09-07T12:19:28.257Z,101290.09
2022-09-07T12:21:32.568Z,101291.09
2022-09-07T12:23:34.111Z,101286.91
2022-09-07T12:25:35.686Z,101286.06
2022-09-07T12:27:38.629Z,101291.56
2022-09-07T12:29:45.225Z,101285.91
2022-09-07T12:34:32.915Z,101282.00
2022-09-07T12:36:34.282Z,101279.03
2022-09-07T12:39:17.255Z,101287.13
2022-09-07T12:41:41.074Z,101281.25
2022-09-07T12:43:51.615Z,101286.03
2022-09-07T12:45:55.145Z,101284.56
2022-09-07T12:47:59.511Z,101286.28
2022-09-07T12:50:28.470Z,101285.06
2022-09-07T12:52:47.269Z,101288.97
2022-09-07T12:55:28.444Z,101288.69
2022-09-07T12:57:51.458Z,101293.31
2022-09-07T13:00:12.734Z,101290.34
2022-09-07T13:02:35.418Z,101283.72
2022-09-07T13:04:59.524Z,101285.56
2022-09-07T13:07:16.597Z,101282.13
2022-09-07T13:09:38.670Z,101290.59
2022-09-07T13:11:40.651Z,101277.22
2022-09-07T13:14:08.455Z,101283.97
2022-09-07T13:16:16.695Z,101284.44
2022-09-07T13:18:28.539Z,101288.50
2022-09-07T13:20:33.881Z,101285.44
2022-09-07T13:22:39.156Z,101292.69
2022-09-07T13:25:18.129Z,101286.66
2022-09-07T13:27:36.000Z,101289.59
2022-09-07T13:29:52.573Z,101296.97
2022-09-07T13:32:09.346Z,101290.94
2022-09-07T13:34:32.373Z,101290.31
2022-09-07T13:36:38.880Z,101293.63
2022-09-07T13:38:42.449Z,101287.63
2022-09-07T13:40:47.354Z,101285.16
2022-09-07T13:42:50.809Z,101289.06
2022-09-07T13:45:05.065Z,101283.91
2022-09-07T13:47:38.970Z,101286.06
2022-09-07T13:50:02.048Z,101291.44
2022-09-07T13:52:33.267Z,101289.31
2022-09-07T13:55:08.648Z,101286.19
2022-09-07T13:57:28.027Z,101289.59
2022-09-07T13:59:33.404Z,101287.00
2022-09-07T14:01:35.224Z,101286.25
2022-09-07T14:03:48.676Z,101284.84
2022-09-07T14:06:13.855Z,101284.34
2022-09-07T14:08:29.414Z,101291.44
2022-09-07T14:10:30.852Z,101288.63
2022-09-07T14:12:32.445Z,101283.25
2022-09-07T14:14:33.869Z,101281.41
2022-09-07T14:16:36.341Z,101282.41
2022-09-07T14:18:39.818Z,101288.97
2022-09-07T14:20:46.575Z,101275.63
2022-09-07T14:22:53.033Z,101283.72
2022-09-07T14:25:01.273Z,101279.19
2022-09-07T14:27:04.037Z,101277.47
2022-09-07T14:29:05.527Z,101273.69
2022-09-07T14:31:15.008Z,101272.81
2022-09-07T14:33:17.362Z,101273.78
2022-09-07T14:35:22.099Z,101274.78
2022-09-07T14:37:24.026Z,101273.16
2022-09-07T14:39:27.534Z,101275.97
2022-09-07T14:41:32.983Z,101274.03
2022-09-07T14:43:37.042Z,101279.19
2022-09-07T14:45:38.590Z,101272.81
2022-09-07T14:47:40.639Z,101270.88
2022-09-07T14:49:43.742Z,101272.47
2022-09-07T14:51:45.832Z,101274.94
2022-09-07T14:53:51.718Z,101277.41
2022-09-07T14:56:02.159Z,101266.53
2022-09-07T14:58:15.412Z,101271.47
2022-09-07T15:00:46.593Z,101271.97
2022-09-07T15:02:48.257Z,101267.00
2022-09-07T15:05:15.140Z,101258.56
2022-09-07T15:07:39.662Z,101262.00
2022-09-07T15:09:41.124Z,101261.28
2022-09-07T15:11:42.584Z,101261.63
2022-09-07T15:13:45.730Z,101256.53
2022-09-07T15:15:57.337Z,101262.28
2022-09-07T15:18:07.804Z,101261.19
2022-09-07T15:20:36.650Z,101258.31
2022-09-07T15:22:38.140Z,101257.09
2022-09-07T15:24:39.553Z,101265.56
2022-09-07T15:29:12.071Z,101259.47
2022-09-07T15:33:37.540Z,101259.59
2022-09-07T15:35:38.953Z,101259.59
2022-09-07T15:40:02.946Z,101258.69
2022-09-07T15:44:28.334Z,101260.13
2022-09-07T15:46:30.123Z,101263.25
2022-09-07T15:48:31.673Z,101266.06
2022-09-07T15:50:33.123Z,101264.34
2022-09-07T15:52:34.579Z,101259.94
2022-09-07T15:54:39.601Z,101263.38
2022-09-07T15:56:44.418Z,101260.69
2022-09-07T15:59:05.110Z,101261.53
2022-09-07T16:03:28.611Z,101266.81
2022-09-07T16:05:31.437Z,101264.88
2022-09-07T16:09:55.160Z,101266.91
2022-09-07T16:11:56.801Z,101262.13
2022-09-07T16:14:03.192Z,101254.53
2022-09-07T16:16:06.135Z,101264.13
2022-09-07T16:18:07.662Z,101261.78
2022-09-07T16:20:09.797Z,101256.63
2022-09-07T16:23:13.194Z,101245.84
2022-09-07T16:24:34.245Z,101249.63
2022-09-07T16:26:35.925Z,101250.50
2022-09-07T16:28:43.636Z,101248.78
2022-09-07T16:30:45.162Z,101243.72
2022-09-07T16:32:46.810Z,101250.22
2022-09-07T16:34:49.066Z,101243.31
2022-09-07T16:36:50.610Z,101240.72
2022-09-07T16:39:00.546Z,101240.84
2022-09-07T16:41:02.270Z,101237.28
2022-09-07T16:43:03.699Z,101244.63
2022-09-07T16:47:27.127Z,101240.16
2022-09-07T16:49:28.797Z,101236.81
2022-09-07T16:51:30.233Z,101238.03
2022-09-07T16:53:34.502Z,101236.53
2022-09-07T16:55:36.030Z,101239.47
2022-09-07T16:59:58.921Z,101239.81
2022-09-07T17:02:00.383Z,101238.09
2022-09-07T17:04:05.570Z,101239.19
2022-09-07T17:06:13.473Z,101239.19
2022-09-07T17:08:14.948Z,101236.38
2022-09-07T17:10:16.454Z,101228.28
2022-09-07T17:12:17.916Z,101241.75
2022-09-07T17:14:19.469Z,101227.53
2022-09-07T17:16:24.425Z,101233.16
2022-09-07T17:20:58.594Z,101228.34
2022-09-07T17:23:01.477Z,101224.13
2022-09-07T17:25:03.002Z,101224.47
2022-09-07T17:27:04.910Z,101223.84
2022-09-07T17:29:07.323Z,101219.88
2022-09-07T17:32:23.848Z,101229.22
2022-09-07T17:33:36.743Z,101237.75
2022-09-07T17:35:38.162Z,101231.75
2022-09-07T17:37:39.570Z,101233.78
2022-09-07T17:39:41.131Z,101233.03
2022-09-07T17:41:42.803Z,101239.50
2022-09-07T17:43:45.698Z,101234.31
2022-09-07T17:45:55.127Z,101234.53
2022-09-07T17:47:56.581Z,101233.91
2022-09-07T17:49:57.993Z,101233.25
2022-09-07T17:52:00.942Z,101242.53
2022-09-07T17:54:12.314Z,101239.19
2022-09-07T17:56:16.292Z,101247.69
2022-09-07T17:58:18.577Z,101247.06
2022-09-07T18:00:20.107Z,101252.66
2022-09-07T18:02:21.547Z,101256.63
2022-09-07T18:04:23.768Z,101249.19
2022-09-07T18:06:28.105Z,101254.97
2022-09-07T18:08:30.335Z,101266.13
2022-09-07T18:12:56.872Z,101262.38
2022-09-07T18:14:58.433Z,101259.03
2022-09-07T18:17:00.354Z,101257.31
2022-09-07T18:19:07.362Z,101254.72
2022-09-07T18:21:33.197Z,101250.63
2022-09-07T18:23:35.724Z,101242.78
2022-09-07T18:25:37.507Z,101251.81
2022-09-07T18:27:39.849Z,101245.84
2022-09-07T18:29:41.632Z,101254.53
2022-09-07T18:31:43.127Z,101262.25
2022-09-07T18:33:44.591Z,101257.50
2022-09-07T18:35:46.762Z,101264.44
2022-09-07T18:37:48.830Z,101271.13
2022-09-07T18:39:51.539Z,101267.03
2022-09-07T18:41:56.608Z,101268.09
2022-09-07T18:43:58.362Z,101268.28
2022-09-07T18:46:13.597Z,101276.53
2022-09-07T18:48:15.035Z,101281.34
2022-09-07T18:50:17.405Z,101278.97
2022-09-07T18:54:42.318Z,101274.75
2022-09-07T18:56:44.085Z,101280.13
2022-09-07T18:58:47.364Z,101274.88
2022-09-07T19:00:53.872Z,101270.34
2022-09-07T19:02:55.446Z,101269.78
2022-09-07T19:07:20.273Z,101271.50
2022-09-07T19:09:21.709Z,101277.38
2022-09-07T19:11:24.788Z,101267.78
2022-09-07T19:13:26.298Z,101266.16
2022-09-07T19:15:27.715Z,101262.72
2022-09-07T19:17:29.236Z,101264.72
2022-09-07T19:19:30.887Z,101265.03
2022-09-07T19:21:38.782Z,101268.84
2022-09-07T19:23:40.358Z,101276.34
2022-09-07T19:25:42.041Z,101276.44
2022-09-07T19:27:43.527Z,101277.50
2022-09-07T19:29:44.959Z,101272.63
2022-09-07T19:32:11.603Z,101276.25
2022-09-07T19:34:13.077Z,101277.31
2022-09-07T19:36:14.625Z,101274.72
2022-09-07T19:38:16.072Z,101275.78
2022-09-07T19:40:19.422Z,101269.66
2022-09-07T19:42:22.249Z,101276.94
2022-09-07T19:44:23.691Z,101271.75
2022-09-07T19:46:25.715Z,101282.56
2022-09-07T19:48:27.908Z,101278.16
2022-09-07T19:50:30.893Z,101274.63
2022-09-07T19:52:32.813Z,101282.66
2022-09-07T19:54:34.295Z,101274.72
2022-09-07T19:56:40.285Z,101273.84
2022-09-07T19:58:43.963Z,101272.22
2022-09-07T20:00:45.475Z,101269.63
2022-09-07T20:02:49.244Z,101264.38
2022-09-07T20:04:50.750Z,101264.56
2022-09-07T20:06:52.298Z,101262.84
2022-09-07T20:08:55.627Z,101261.97
2022-09-07T20:11:02.410Z,101260.34
2022-09-07T20:13:04.565Z,101271.22
2022-09-07T20:15:06.475Z,101260.78
2022-09-07T20:17:07.891Z,101261.81
2022-09-07T20:19:11.697Z,101261.91
2022-09-07T20:21:16.434Z,101263.81
2022-09-07T20:23:17.856Z,101257.69
2022-09-07T20:25:19.271Z,101260.38
2022-09-07T20:27:20.668Z,101258.75
2022-09-07T20:29:29.474Z,101252.72
2022-09-07T20:31:31.058Z,101251.84
2022-09-07T20:33:32.748Z,101250.13
2022-09-07T20:35:34.335Z,101248.41
2022-09-07T20:37:35.777Z,101254.63
2022-09-07T20:39:39.612Z,101249.44
2022-09-07T20:41:41.243Z,101243.31
2022-09-07T20:43:42.708Z,101246.00
2022-09-07T20:45:44.142Z,101242.53
2022-09-07T20:47:45.647Z,101242.53
2022-09-07T20:49:48.314Z,101251.53
2022-09-07T20:51:49.818Z,101243.59
2022-09-07T20:53:51.845Z,101236.59
2022-09-07T20:56:14.372Z,101233.16
2022-09-07T20:58:16.189Z,101233.34
2022-09-07T21:00:17.739Z,101235.25
2022-09-07T21:02:19.281Z,101238.03
2022-09-07T21:04:20.847Z,101230.97
2022-09-07T21:06:23.226Z,101221.28
2022-09-07T21:08:24.769Z,101234.84
2022-09-07T21:10:26.927Z,101227.88
2022-09-07T21:12:28.368Z,101233.41
2022-09-07T21:14:29.817Z,101224.59
2022-09-07T21:16:31.514Z,101228.31
2022-09-07T21:18:34.360Z,101219.53
2022-09-07T21:20:35.834Z,101221.41
2022-09-07T21:22:37.352Z,101227.03
2022-09-07T21:24:38.831Z,101225.50
2022-09-07T21:26:40.344Z,101231.13
2022-09-07T21:28:41.821Z,101229.47
2022-09-07T21:30:43.235Z,101232.25
2022-09-07T21:32:44.793Z,101233.28
2022-09-07T21:34:46.212Z,101226.25
2022-09-07T21:36:47.806Z,101229.03
2022-09-07T21:38:50.031Z,101227.31
2022-09-07T21:40:51.500Z,101226.53
2022-09-07T21:42:53.213Z,101221.53
2022-09-07T21:44:54.631Z,101223.53
2022-09-07T21:46:56.143Z,101220.94
2022-09-07T21:48:58.285Z,101217.47
2022-09-07T21:50:59.742Z,101215.84
2022-09-07T21:53:01.547Z,101211.53
2022-09-07T21:55:03.077Z,101205.50
2022-09-07T21:57:04.880Z,101207.56
2022-09-07T21:59:06.605Z,101221.03
2022-09-07T22:01:13.732Z,101214.22
2022-09-07T22:03:15.242Z,101219.84
2022-09-07T22:05:16.746Z,101228.03
2022-09-07T22:07:18.582Z,101224.59
2022-09-07T22:09:20.235Z,101217.50
2022-09-07T22:11:23.242Z,101216.66
2022-09-07T22:13:24.714Z,101218.53
2022-09-07T22:15:26.278Z,101214.22
2022-09-07T22:17:27.695Z,101211.63
2022-09-07T22:19:29.132Z,101209.13
2022-09-07T22:21:31.442Z,101203.09
2022-09-07T22:23:34.473Z,101198.94
2022-09-07T22:25:36.093Z,101205.31
2022-09-07T22:27:37.527Z,101203.69
2022-09-07T22:29:38.938Z,101203.78
2022-09-07T22:31:41.037Z,101204.81
2022-09-07T22:33:43.444Z,101206.78
2022-09-07T22:35:44.917Z,101206.06
2022-09-07T22:37:46.420Z,101201.72
2022-09-07T22:39:47.902Z,101209.84
2022-09-07T22:41:49.390Z,101204.66
2022-09-07T22:43:51.131Z,101207.50
2022-09-07T22:45:52.634Z,101199.66
2022-09-07T22:47:54.071Z,101202.56
2022-09-07T22:49:55.499Z,101203.59
2022-09-07T22:51:56.927Z,101202.03
2022-09-07T22:53:58.809Z,101205.97
2022-09-07T22:56:05.132Z,101203.53
2022-09-07T22:58:06.557Z,101194.97
2022-09-07T23:00:09.347Z,101197.78
2022-09-07T23:02:10.798Z,101197.94
2022-09-07T23:04:13.166Z,101194.34
2022-09-07T23:06:41.945Z,101191.16
2022-09-07T23:08:43.730Z,101188.50
2022-09-07T23:10:45.474Z,101189.28
2022-09-07T23:12:46.923Z,101180.50
2022-09-07T23:14:48.361Z,101184.25
2022-09-07T23:16:50.480Z,101181.75
2022-09-07T23:18:53.061Z,101181.75
2022-09-07T23:21:00.848Z,101181.13
2022-09-07T23:23:02.328Z,101177.84
2022-09-07T23:25:04.356Z,101172.66
2022-09-07T23:27:06.609Z,101172.75
2022-09-07T23:29:11.163Z,101167.47
2022-09-07T23:31:12.678Z,101164.03
2022-09-07T23:33:14.378Z,101162.47
2022-09-07T23:35:16.751Z,101155.53
2022-09-07T23:37:18.654Z,101154.81
2022-09-07T23:39:20.170Z,101151.38
2022-09-07T23:41:21.927Z,101150.50
2022-09-07T23:43:24.904Z,101147.81
2022-09-07T23:45:27.187Z,101146.25
2022-09-07T23:47:28.884Z,101150.03
2022-09-07T23:49:30.332Z,101139.66
2022-09-07T23:51:31.751Z,101140.75
2022-09-07T23:53:33.394Z,101140.84
2022-09-07T23:55:34.954Z,101137.31
2022-09-07T23:57:37.499Z,101126.63
2022-09-07T23:59:38.921Z,101133.78
